This is the latest recevied weather packets stored in our database for station/object NG7M. If no packets are shown the sender has not sent any weather packets the latest 10 day(s).
| Time | Temp. | Humidity | Pressure | Rain* | Wind** | Luminosity | Snow |
|---|---|---|---|---|---|---|---|
| 1777891503 | 15° C | 30% | 1009 hPa | 0 mm | - | - | - |
| 1777890303 | 12.78° C | 40% | 1009.2 hPa | 0 mm | - | - | - |
| 1777888804 | 13.33° C | 43% | 1008.8 hPa | 0 mm | - | - | - |
| 1777888504 | 13.33° C | 42% | 1008.8 hPa | 0 mm | - | - | - |
| 1777884604 | 12.22° C | 34% | 1007.8 hPa | 0 mm | - | - | - |
| 1777882503 | 12.78° C | 32% | 1008.1 hPa | 0 mm | - | - | - |
| 1777880104 | 15° C | 28% | 1008.2 hPa | 0 mm | - | - | - |
| 1777879504 | 15° C | 26% | 1008.2 hPa | 0 mm | - | - | - |
| 1777878603 | 15° C | 26% | 1008.2 hPa | 0 mm | - | - | - |
| 1777878004 | 14.44° C | 27% | 1008.2 hPa | 0 mm | - | - | - |
| 1777873803 | 15° C | 30% | 1008.3 hPa | 0 mm | - | - | - |
| 1777872903 | 16.11° C | 28% | 1008.2 hPa | 0 mm | - | - | - |
| 1777871104 | 18.33° C | 19% | 1008.4 hPa | 0 mm | - | - | - |
| 1777862704 | 21.11° C | 16% | 1008.8 hPa | 0 mm | - | - | - |
| 1777861504 | 21.67° C | 16% | 1008.8 hPa | 0 mm | - | - | - |
| 1777861204 | 21.67° C | 16% | 1008.8 hPa | 0 mm | - | - | - |
| 1777860304 | 22.22° C | 17% | 1008.8 hPa | 0 mm | - | - | - |
| 1777859104 | 22.78° C | 17% | 1008.9 hPa | 0 mm | - | - | - |
| 1777858203 | 23.33° C | 16% | 1009.3 hPa | 0 mm | - | - | - |
| 1777856704 | 24.44° C | 14% | 1009.4 hPa | 0 mm | - | - | - |
| 1777855803 | 25° C | 12% | 1009.5 hPa | 0 mm | - | - | - |
| 1777854304 | 25° C | 11% | 1009.7 hPa | 0 mm | - | - | - |
| 1777852804 | 25° C | 11% | 1010 hPa | 0 mm | - | - | - |
| 1777851904 | 25° C | 11% | 1010 hPa | 0 mm | - | - | - |
| 1777851603 | 25° C | 12% | 1010 hPa | 0 mm | - | - | - |
* Rain latest hour (hover to see other rain measurements)
** Current wind speed in m/s (hover to see current wind gust speed)